createdAt,value
2019-02-16T00:02:15.555Z,10.50
2019-02-16T00:04:43.951Z,10.60
2019-02-16T00:07:12.348Z,10.40
2019-02-16T00:09:40.747Z,10.40
2019-02-16T00:12:09.131Z,10.30
2019-02-16T00:14:37.544Z,10.30
2019-02-16T00:17:05.943Z,10.30
2019-02-16T00:19:34.335Z,10.20
2019-02-16T00:22:02.721Z,10.30
2019-02-16T00:24:31.120Z,10.30
2019-02-16T00:26:59.505Z,10.40
2019-02-16T00:29:27.881Z,10.50
2019-02-16T00:31:56.286Z,10.40
2019-02-16T00:34:24.663Z,10.40
2019-02-16T00:36:53.063Z,10.40
2019-02-16T00:39:21.460Z,10.50
2019-02-16T00:41:49.847Z,10.40
2019-02-16T00:44:18.231Z,10.30
2019-02-16T00:46:46.621Z,10.30
2019-02-16T00:49:15.018Z,10.40
2019-02-16T00:51:43.423Z,10.30
2019-02-16T00:54:11.813Z,10.30
2019-02-16T00:56:40.195Z,10.40
2019-02-16T00:59:08.585Z,10.30
2019-02-16T01:01:36.987Z,10.30
2019-02-16T01:04:05.371Z,10.20
2019-02-16T01:06:33.762Z,10.20
2019-02-16T01:09:02.229Z,10.20
2019-02-16T01:11:30.615Z,10.10
2019-02-16T01:13:59.000Z,10.10
2019-02-16T01:16:27.407Z,10.10
2019-02-16T01:18:55.881Z,10.10
2019-02-16T01:21:24.275Z,10.10
2019-02-16T01:23:52.693Z,10.10
2019-02-16T01:26:21.075Z,10.00
2019-02-16T01:28:49.461Z,10.00
2019-02-16T01:31:17.873Z,10.00
2019-02-16T01:33:46.287Z,10.10
2019-02-16T01:36:14.659Z,10.10
2019-02-16T01:38:43.057Z,10.00
2019-02-16T01:41:11.451Z,10.00
2019-02-16T01:43:39.927Z,10.00
2019-02-16T01:46:08.327Z,10.10
2019-02-16T01:48:36.787Z,10.00
2019-02-16T01:51:05.180Z,10.00
2019-02-16T01:53:33.584Z,10.10
2019-02-16T01:56:01.955Z,10.20
2019-02-16T01:58:30.346Z,10.10
2019-02-16T02:00:58.799Z,10.00
2019-02-16T02:03:27.191Z,9.90
2019-02-16T02:05:55.578Z,10.00
2019-02-16T02:08:23.974Z,10.00
2019-02-16T02:10:52.360Z,10.00
2019-02-16T02:13:20.744Z,9.90
2019-02-16T02:15:49.132Z,9.90
2019-02-16T02:18:17.520Z,9.90
2019-02-16T02:20:45.905Z,9.90
2019-02-16T02:23:14.293Z,9.90
2019-02-16T02:25:42.672Z,9.80
2019-02-16T02:28:11.055Z,9.80
2019-02-16T02:30:39.459Z,9.80
2019-02-16T02:33:07.849Z,9.80
2019-02-16T02:35:36.219Z,9.70
2019-02-16T02:38:04.619Z,9.60
2019-02-16T02:40:33.007Z,9.60
2019-02-16T02:43:01.395Z,9.50
2019-02-16T02:45:29.791Z,9.50
2019-02-16T02:47:58.176Z,9.50
2019-02-16T02:50:26.561Z,9.50
2019-02-16T02:52:56.571Z,9.40
2019-02-16T02:55:25.222Z,9.40
2019-02-16T02:57:53.600Z,9.30
2019-02-16T03:00:21.988Z,9.20
2019-02-16T03:02:50.416Z,9.20
2019-02-16T03:05:18.810Z,9.30
2019-02-16T03:07:47.193Z,9.30
2019-02-16T03:10:15.965Z,9.20
2019-02-16T03:12:44.374Z,9.20
2019-02-16T03:15:12.778Z,9.20
2019-02-16T03:17:41.208Z,9.20
2019-02-16T03:20:09.592Z,9.20
2019-02-16T03:23:12.545Z,9.20
2019-02-16T03:25:43.144Z,9.20
2019-02-16T03:28:32.452Z,9.10
2019-02-16T03:31:37.595Z,9.10
2019-02-16T03:34:15.260Z,9.10
2019-02-16T03:37:03.704Z,9.00
2019-02-16T03:39:32.169Z,9.00
2019-02-16T03:42:00.545Z,9.00
2019-02-16T03:44:28.933Z,9.00
2019-02-16T03:46:57.321Z,9.00
2019-02-16T03:49:25.703Z,9.00
2019-02-16T03:51:54.079Z,9.00
2019-02-16T03:54:22.459Z,9.00
2019-02-16T03:56:50.842Z,8.90
2019-02-16T03:59:19.224Z,8.90
2019-02-16T04:01:47.684Z,8.90
2019-02-16T04:04:16.096Z,8.90
2019-02-16T04:06:44.483Z,8.90
2019-02-16T04:09:12.911Z,8.90
2019-02-16T04:11:41.297Z,8.90
2019-02-16T04:14:09.693Z,8.90
2019-02-16T04:16:38.077Z,8.90
2019-02-16T04:19:06.485Z,8.90
2019-02-16T04:21:34.863Z,8.90
2019-02-16T04:24:03.262Z,8.90
2019-02-16T04:26:31.664Z,8.90
2019-02-16T04:29:00.054Z,8.90
2019-02-16T04:31:28.429Z,8.90
2019-02-16T04:33:56.807Z,8.90
2019-02-16T04:36:25.213Z,8.90
2019-02-16T04:38:53.592Z,8.90
2019-02-16T04:41:21.970Z,8.90
2019-02-16T04:43:50.364Z,8.90
2019-02-16T04:46:18.755Z,8.90
2019-02-16T04:48:47.131Z,8.90
2019-02-16T04:51:15.536Z,8.90
2019-02-16T04:53:43.941Z,8.90
2019-02-16T04:56:12.471Z,8.90
2019-02-16T04:58:40.945Z,8.90
2019-02-16T05:01:09.335Z,8.80
2019-02-16T05:03:37.721Z,8.90
2019-02-16T05:06:06.109Z,8.90
2019-02-16T05:08:34.495Z,8.90
2019-02-16T05:11:02.888Z,8.90
2019-02-16T05:13:31.467Z,8.80
2019-02-16T05:15:59.854Z,8.90
2019-02-16T05:18:28.231Z,8.90
2019-02-16T05:20:56.623Z,8.80
2019-02-16T05:23:25.011Z,8.80
2019-02-16T05:25:53.403Z,8.80
2019-02-16T05:28:21.813Z,8.90
2019-02-16T05:30:50.215Z,8.80
2019-02-16T05:33:18.660Z,8.80
2019-02-16T05:35:47.048Z,8.70
2019-02-16T05:38:15.441Z,8.70
2019-02-16T05:40:43.828Z,8.60
2019-02-16T05:43:12.223Z,8.60
2019-02-16T05:45:40.617Z,8.70
2019-02-16T05:48:09.004Z,8.70
2019-02-16T05:50:37.397Z,8.70
2019-02-16T05:53:05.775Z,8.90
2019-02-16T05:55:34.159Z,8.90
2019-02-16T05:58:02.639Z,8.90
2019-02-16T06:00:31.811Z,8.90
2019-02-16T06:03:00.188Z,9.00
2019-02-16T06:05:28.644Z,9.10
2019-02-16T06:07:57.039Z,9.00
2019-02-16T06:10:25.419Z,9.00
2019-02-16T06:12:53.807Z,8.90
2019-02-16T06:15:22.205Z,8.90
2019-02-16T06:17:50.592Z,8.90
2019-02-16T06:20:18.974Z,8.90
2019-02-16T06:22:47.355Z,8.90
2019-02-16T06:25:15.751Z,8.90
2019-02-16T06:27:49.644Z,8.90
2019-02-16T06:30:18.044Z,8.90
2019-02-16T06:32:46.471Z,8.80
2019-02-16T06:35:19.293Z,8.80
2019-02-16T06:37:47.712Z,8.80
2019-02-16T06:40:16.108Z,8.80
2019-02-16T06:42:44.575Z,8.80
2019-02-16T06:45:13.702Z,8.90
2019-02-16T06:47:42.108Z,8.80
2019-02-16T06:50:10.962Z,8.80
2019-02-16T06:52:39.387Z,8.80
2019-02-16T06:55:07.824Z,8.80
2019-02-16T06:57:36.436Z,8.70
2019-02-16T07:00:08.212Z,8.70
2019-02-16T07:02:37.112Z,8.70
2019-02-16T07:05:06.802Z,8.70
2019-02-16T07:07:35.362Z,8.70
2019-02-16T07:10:06.431Z,8.70
2019-02-16T07:12:34.930Z,8.70
2019-02-16T07:15:03.796Z,8.80
2019-02-16T07:17:34.149Z,8.70
2019-02-16T07:20:02.786Z,8.80
2019-02-16T07:22:31.347Z,8.80
2019-02-16T07:24:59.834Z,8.80
2019-02-16T07:27:28.872Z,8.80
2019-02-16T07:29:57.435Z,8.80
2019-02-16T07:32:26.129Z,8.80
2019-02-16T07:35:00.682Z,8.80
2019-02-16T07:37:32.378Z,8.90
2019-02-16T07:40:00.820Z,8.90
2019-02-16T07:42:30.861Z,9.00
2019-02-16T07:45:00.912Z,9.10
2019-02-16T07:47:35.161Z,9.10
2019-02-16T07:50:20.565Z,9.10
2019-02-16T07:52:53.412Z,9.10
2019-02-16T07:55:25.955Z,9.20
2019-02-16T07:57:58.833Z,9.20
2019-02-16T08:00:34.660Z,9.20
2019-02-16T08:03:04.762Z,9.30
2019-02-16T08:05:49.764Z,9.40
2019-02-16T08:08:22.932Z,9.70
2019-02-16T08:11:04.661Z,10.30
2019-02-16T08:13:34.711Z,10.80
2019-02-16T08:16:20.905Z,11.50
2019-02-16T08:18:53.908Z,12.00
2019-02-16T08:21:36.001Z,12.70
2019-02-16T08:24:20.850Z,13.10
2019-02-16T08:26:51.265Z,13.80
2019-02-16T08:29:37.464Z,15.00
2019-02-16T08:32:24.000Z,17.50
2019-02-16T08:34:54.052Z,20.30
2019-02-16T08:37:33.180Z,16.30
2019-02-16T08:40:22.142Z,14.60
2019-02-16T08:42:58.037Z,14.00
2019-02-16T08:45:30.776Z,13.60
2019-02-16T08:48:00.825Z,13.50
2019-02-16T08:50:36.985Z,13.10
2019-02-16T08:53:07.052Z,12.90
2019-02-16T08:55:40.099Z,13.30
2019-02-16T08:58:29.443Z,13.30
2019-02-16T09:01:14.361Z,14.10
2019-02-16T09:03:44.504Z,15.40
2019-02-16T09:06:26.563Z,20.10
2019-02-16T09:09:02.757Z,22.80
2019-02-16T09:11:35.761Z,27.00
2019-02-16T09:16:47.667Z,28.90
2019-02-16T09:19:17.711Z,30.90
2019-02-16T09:21:53.308Z,28.40
2019-02-16T09:24:30.815Z,27.30
2019-02-16T09:27:10.699Z,27.20
2019-02-16T09:29:55.804Z,29.10
2019-02-16T09:32:25.938Z,27.20
2019-02-16T09:34:55.996Z,29.60
2019-02-16T09:37:26.033Z,29.20
2019-02-16T09:40:05.245Z,31.40
2019-02-16T09:42:35.297Z,31.20
2019-02-16T09:45:06.153Z,36.30
2019-02-16T09:47:48.143Z,37.30
2019-02-16T09:50:23.981Z,38.00
2019-02-16T09:52:56.473Z,39.40
2019-02-16T09:55:29.688Z,39.10
2019-02-16T09:58:16.195Z,37.10
2019-02-16T10:00:48.957Z,35.70
2019-02-16T10:03:34.016Z,36.30
2019-02-16T10:06:19.258Z,37.40
2019-02-16T10:08:58.276Z,38.20
2019-02-16T10:11:37.351Z,38.90
2019-02-16T10:14:10.627Z,39.20
2019-02-16T10:16:43.670Z,39.90
2019-02-16T10:21:54.960Z,39.20
2019-02-16T10:24:27.798Z,39.00
2019-02-16T10:26:57.844Z,39.70
2019-02-16T10:29:30.797Z,39.10
2019-02-16T10:32:01.544Z,38.90
2019-02-16T10:34:34.552Z,39.30
2019-02-16T10:37:11.031Z,40.20
2019-02-16T10:39:41.071Z,40.50
2019-02-16T10:42:20.204Z,41.20
2019-02-16T10:44:50.247Z,41.30
2019-02-16T10:47:23.290Z,41.60
2019-02-16T10:49:53.346Z,41.40
2019-02-16T10:52:26.222Z,40.80
2019-02-16T10:55:05.057Z,40.50
2019-02-16T10:57:37.133Z,38.30
2019-02-16T11:00:26.279Z,36.30
2019-02-16T11:02:59.021Z,33.30
2019-02-16T11:08:10.937Z,30.00
2019-02-16T11:10:45.448Z,28.70
2019-02-16T11:13:15.488Z,27.80
2019-02-16T11:16:00.685Z,26.90
2019-02-16T11:18:42.529Z,26.10
2019-02-16T11:21:30.409Z,25.60
2019-02-16T11:26:30.439Z,24.40
2019-02-16T11:29:00.527Z,24.30
2019-02-16T11:31:42.216Z,24.20
2019-02-16T11:34:28.699Z,23.80
2019-02-16T11:36:58.741Z,23.30
2019-02-16T11:39:37.617Z,23.80
2019-02-16T11:42:13.727Z,24.00
2019-02-16T11:44:46.884Z,23.80
2019-02-16T11:47:28.127Z,23.90
2019-02-16T11:50:13.168Z,23.70
2019-02-16T11:52:59.505Z,24.80
2019-02-16T11:55:32.199Z,26.90
2019-02-16T11:58:04.975Z,27.60
2019-02-16T12:00:35.098Z,26.20
2019-02-16T12:03:06.238Z,25.10
2019-02-16T12:05:38.839Z,24.60
2019-02-16T12:08:11.760Z,24.20
2019-02-16T12:10:47.812Z,24.00
2019-02-16T12:13:35.923Z,23.80
2019-02-16T12:16:08.922Z,23.70
2019-02-16T12:18:38.955Z,23.60
2019-02-16T12:21:14.833Z,23.50
2019-02-16T12:23:56.779Z,23.40
2019-02-16T12:26:29.575Z,23.50
2019-02-16T12:28:59.629Z,23.60
2019-02-16T12:31:35.420Z,23.10
2019-02-16T12:34:22.022Z,23.00
2019-02-16T12:36:52.059Z,23.00
2019-02-16T12:39:25.032Z,23.10
2019-02-16T12:42:04.044Z,22.80
2019-02-16T12:44:52.433Z,22.20
2019-02-16T12:47:31.500Z,22.50
2019-02-16T12:50:07.555Z,22.70
2019-02-16T12:52:46.428Z,22.80
2019-02-16T12:55:33.012Z,23.00
2019-02-16T12:58:05.785Z,22.80
2019-02-16T13:00:35.844Z,22.30
2019-02-16T13:03:08.532Z,22.70
2019-02-16T13:05:50.776Z,22.00
2019-02-16T13:08:20.841Z,22.50
2019-02-16T13:10:56.969Z,22.80
2019-02-16T13:13:44.798Z,23.00
2019-02-16T13:16:23.860Z,23.00
2019-02-16T13:18:59.561Z,23.10
2019-02-16T13:21:38.553Z,23.10
2019-02-16T13:24:08.667Z,23.10
2019-02-16T13:26:38.773Z,23.30
2019-02-16T13:29:25.392Z,23.00
2019-02-16T13:31:58.443Z,23.00
2019-02-16T13:34:34.384Z,23.00
2019-02-16T13:37:07.300Z,23.00
2019-02-16T13:39:46.355Z,23.10
2019-02-16T13:42:18.896Z,22.90
2019-02-16T13:44:51.666Z,22.60
2019-02-16T13:47:30.860Z,22.60
2019-02-16T13:50:00.970Z,22.60
2019-02-16T13:52:47.428Z,22.50
2019-02-16T13:55:36.282Z,22.60
2019-02-16T13:58:15.212Z,22.60
2019-02-16T14:00:48.027Z,22.60
2019-02-16T14:03:26.635Z,22.60
2019-02-16T14:06:05.815Z,22.30
2019-02-16T14:08:52.342Z,22.20
2019-02-16T14:11:38.859Z,22.10
2019-02-16T14:14:11.425Z,22.20
2019-02-16T14:16:44.184Z,22.00
2019-02-16T14:19:12.670Z,22.00
2019-02-16T14:21:41.080Z,22.00
2019-02-16T14:24:09.575Z,21.90
2019-02-16T14:26:37.996Z,21.90
2019-02-16T14:29:06.476Z,21.90
2019-02-16T14:31:34.895Z,21.80
2019-02-16T14:34:03.322Z,21.70
2019-02-16T14:36:31.736Z,21.60
2019-02-16T14:39:04.396Z,21.60
2019-02-16T14:41:32.836Z,21.50
2019-02-16T14:44:01.343Z,21.40
2019-02-16T14:46:29.740Z,21.40
2019-02-16T14:48:58.147Z,21.40
2019-02-16T14:51:26.565Z,21.20
2019-02-16T14:53:54.986Z,21.10
2019-02-16T14:56:23.396Z,20.90
2019-02-16T14:58:51.828Z,20.80
2019-02-16T15:01:20.251Z,20.30
2019-02-16T15:03:48.628Z,20.20
2019-02-16T15:06:17.040Z,19.60
2019-02-16T15:08:45.521Z,19.70
2019-02-16T15:11:13.932Z,19.80
2019-02-16T15:13:42.360Z,19.70
2019-02-16T15:16:10.757Z,19.40
2019-02-16T15:18:39.158Z,19.40
2019-02-16T15:21:07.582Z,19.40
2019-02-16T15:23:35.984Z,19.40
2019-02-16T15:26:04.380Z,19.30
2019-02-16T15:28:32.819Z,19.20
2019-02-16T15:31:01.228Z,19.20
2019-02-16T15:33:29.631Z,18.80
2019-02-16T15:35:58.029Z,18.70
2019-02-16T15:38:26.445Z,18.40
2019-02-16T15:40:54.844Z,18.30
2019-02-16T15:43:23.261Z,18.20
2019-02-16T15:45:51.656Z,18.10
2019-02-16T15:48:20.145Z,18.00
2019-02-16T15:50:48.566Z,17.80
2019-02-16T15:53:16.987Z,17.70
2019-02-16T15:55:45.395Z,17.50
2019-02-16T15:58:13.893Z,17.40
2019-02-16T16:00:42.468Z,17.30
2019-02-16T16:03:10.916Z,17.20
2019-02-16T16:05:39.322Z,17.00
2019-02-16T16:08:12.310Z,16.90
2019-02-16T16:10:42.346Z,16.80
2019-02-16T16:13:15.072Z,16.60
2019-02-16T16:15:51.287Z,16.50
2019-02-16T16:18:33.174Z,16.40
2019-02-16T16:21:05.871Z,16.30
2019-02-16T16:23:50.660Z,16.20
2019-02-16T16:26:33.054Z,16.10
2019-02-16T16:29:19.737Z,16.00
2019-02-16T16:31:49.882Z,15.90
2019-02-16T16:34:25.558Z,15.70
2019-02-16T16:36:58.320Z,15.50
2019-02-16T16:39:37.348Z,15.40
2019-02-16T16:42:07.580Z,15.20
2019-02-16T16:44:40.373Z,15.10
2019-02-16T16:47:26.590Z,15.00
2019-02-16T16:50:18.676Z,14.90
2019-02-16T16:53:00.930Z,14.90
2019-02-16T16:55:30.992Z,14.80
2019-02-16T16:58:03.849Z,14.60
2019-02-16T17:00:42.777Z,14.20
2019-02-16T17:03:12.844Z,14.00
2019-02-16T17:05:48.876Z,13.90
2019-02-16T17:08:24.532Z,13.70
2019-02-16T17:10:54.671Z,13.60
2019-02-16T17:13:33.315Z,13.30
2019-02-16T17:16:15.378Z,13.10
2019-02-16T17:18:54.471Z,12.80
2019-02-16T17:21:24.606Z,12.20
2019-02-16T17:24:00.319Z,12.00
2019-02-16T17:26:37.874Z,11.90
2019-02-16T17:29:21.191Z,11.90
2019-02-16T17:31:54.204Z,11.80
2019-02-16T17:34:24.251Z,11.40
2019-02-16T17:36:57.003Z,11.10
2019-02-16T17:39:29.559Z,11.00
2019-02-16T17:42:17.796Z,10.90
2019-02-16T17:44:47.846Z,10.70
2019-02-16T17:47:33.856Z,10.40
2019-02-16T17:50:03.983Z,10.10
2019-02-16T17:52:46.096Z,9.90
2019-02-16T17:55:34.804Z,9.80
2019-02-16T17:58:04.826Z,9.50
2019-02-16T18:00:37.576Z,9.40
2019-02-16T18:03:10.079Z,9.30
2019-02-16T18:05:43.106Z,9.10
2019-02-16T18:08:16.100Z,9.10
2019-02-16T18:10:48.816Z,9.10
2019-02-16T18:13:18.868Z,8.90
2019-02-16T18:15:58.087Z,8.90
2019-02-16T18:18:46.393Z,8.80
2019-02-16T18:21:19.570Z,8.80
2019-02-16T18:23:49.613Z,8.70
2019-02-16T18:26:22.470Z,8.50
2019-02-16T18:28:57.600Z,8.40
2019-02-16T18:31:33.401Z,8.30
2019-02-16T18:34:18.455Z,8.20
2019-02-16T18:36:51.060Z,8.10
2019-02-16T18:39:21.074Z,8.10
2019-02-16T18:41:57.177Z,8.00
2019-02-16T18:44:33.486Z,8.00
2019-02-16T18:47:06.632Z,7.90
2019-02-16T18:49:39.620Z,7.90
2019-02-16T18:52:12.360Z,7.80
2019-02-16T18:54:58.647Z,7.70
2019-02-16T18:57:34.758Z,7.70
2019-02-16T19:00:08.486Z,7.60
2019-02-16T19:02:44.379Z,7.60
2019-02-16T19:05:15.009Z,7.50
2019-02-16T19:08:00.007Z,7.30
2019-02-16T19:10:33.130Z,7.30
2019-02-16T19:13:05.863Z,7.30
2019-02-16T19:15:41.915Z,7.30
2019-02-16T19:18:14.639Z,7.20
2019-02-16T19:21:00.040Z,7.20
2019-02-16T19:23:45.052Z,7.20
2019-02-16T19:26:29.872Z,7.20
2019-02-16T19:28:59.920Z,7.20
2019-02-16T19:31:32.623Z,7.20
2019-02-16T19:34:03.123Z,7.10
2019-02-16T19:36:39.395Z,7.20
2019-02-16T19:39:21.880Z,7.10
2019-02-16T19:41:51.903Z,7.20
2019-02-16T19:44:21.948Z,7.30
2019-02-16T19:46:54.624Z,7.30
2019-02-16T19:49:41.188Z,7.10
2019-02-16T19:52:14.072Z,7.00
2019-02-16T19:54:55.951Z,6.90
2019-02-16T19:57:28.748Z,6.80
2019-02-16T20:00:13.999Z,6.70
2019-02-16T20:02:49.901Z,6.80
2019-02-16T20:05:22.646Z,6.90
2019-02-16T20:07:55.416Z,7.00
2019-02-16T20:10:31.403Z,7.00
2019-02-16T20:13:07.283Z,6.80
2019-02-16T20:15:55.309Z,6.70
2019-02-16T20:18:34.463Z,6.60
2019-02-16T20:21:20.996Z,6.40
2019-02-16T20:23:51.057Z,6.30
2019-02-16T20:26:36.074Z,6.30
2019-02-16T20:29:08.643Z,6.30
2019-02-16T20:31:41.380Z,6.20
2019-02-16T20:34:11.415Z,6.10
2019-02-16T20:36:50.399Z,6.20
2019-02-16T20:39:20.433Z,6.10
2019-02-16T20:41:56.241Z,6.20
2019-02-16T20:44:28.975Z,6.40
2019-02-16T20:47:02.464Z,6.50
2019-02-16T20:49:32.431Z,6.60
2019-02-16T20:52:05.509Z,6.40
2019-02-16T20:54:44.175Z,6.30
2019-02-16T20:57:14.301Z,6.20
2019-02-16T20:59:46.812Z,6.20
2019-02-16T21:02:22.855Z,6.10
2019-02-16T21:04:52.876Z,6.00
2019-02-16T21:07:29.055Z,6.00
2019-02-16T21:09:59.092Z,6.00
2019-02-16T21:12:45.517Z,5.90
2019-02-16T21:15:27.575Z,5.70
2019-02-16T21:18:00.164Z,5.60
2019-02-16T21:20:30.195Z,5.50
2019-02-16T21:23:00.229Z,5.50
2019-02-16T21:25:39.210Z,5.40
2019-02-16T21:28:11.972Z,5.40
2019-02-16T21:30:47.492Z,5.30
2019-02-16T21:33:26.071Z,5.40
2019-02-16T21:35:56.112Z,5.40
2019-02-16T21:38:28.904Z,5.40
2019-02-16T21:41:15.055Z,5.40
2019-02-16T21:43:45.083Z,5.60
2019-02-16T21:46:15.154Z,5.60
2019-02-16T21:48:48.496Z,5.70
2019-02-16T21:51:36.614Z,5.80
2019-02-16T21:54:23.173Z,6.00
2019-02-16T21:57:09.712Z,6.30
2019-02-16T21:59:39.755Z,6.30
2019-02-16T22:02:26.127Z,6.20
2019-02-16T22:05:05.327Z,6.00
2019-02-16T22:07:35.363Z,6.00
2019-02-16T22:10:11.676Z,6.10
2019-02-16T22:12:41.723Z,6.20
2019-02-16T22:15:10.187Z,6.00
2019-02-16T22:17:38.587Z,5.90
2019-02-16T22:20:10.328Z,5.70
2019-02-16T22:22:38.885Z,5.40
2019-02-16T22:25:07.425Z,5.40
2019-02-16T22:27:35.819Z,5.40
2019-02-16T22:30:05.847Z,5.30
2019-02-16T22:32:34.387Z,5.30
2019-02-16T22:35:02.780Z,5.40
2019-02-16T22:37:31.191Z,5.40
2019-02-16T22:39:59.591Z,5.20
2019-02-16T22:42:28.171Z,5.20
2019-02-16T22:44:56.543Z,5.00
2019-02-16T22:47:24.943Z,5.00
2019-02-16T22:49:53.358Z,5.10
2019-02-16T22:52:21.757Z,5.10
2019-02-16T22:54:50.149Z,5.10
2019-02-16T22:57:18.544Z,5.10
2019-02-16T22:59:48.756Z,5.10
2019-02-16T23:02:17.587Z,4.90
2019-02-16T23:04:46.002Z,5.00
2019-02-16T23:07:14.459Z,5.00
2019-02-16T23:09:42.864Z,4.90
2019-02-16T23:12:11.411Z,4.80
2019-02-16T23:14:39.822Z,4.80
2019-02-16T23:17:08.291Z,4.70
2019-02-16T23:19:36.722Z,4.80
2019-02-16T23:22:05.079Z,4.70
2019-02-16T23:24:33.467Z,4.60
2019-02-16T23:27:01.859Z,4.50
2019-02-16T23:29:30.252Z,4.40
2019-02-16T23:31:58.659Z,4.30
2019-02-16T23:34:27.136Z,4.30
2019-02-16T23:36:55.528Z,4.20
2019-02-16T23:39:23.919Z,4.10
2019-02-16T23:41:52.313Z,4.00
2019-02-16T23:44:20.791Z,4.00
2019-02-16T23:46:51.430Z,4.10
2019-02-16T23:49:19.291Z,4.00
2019-02-16T23:51:47.691Z,4.00
2019-02-16T23:54:16.957Z,3.80
2019-02-16T23:56:45.399Z,4.00
2019-02-16T23:59:13.809Z,4.00
